Time;durP1;ratioP1;P1;durP2;ratioP2;P2;SDS_P1;SDS_P2;PMS_P1;PMS_P2;Temp;Humidity;BMP_temperature;BMP_pressure;BME280_temperature;BME280_humidity;BME280_pressure;Samples;Min_cycle;Max_cycle;Signal;HPM_P1;HPM_P2
2023/09/27 00:02:17;;;;;;;3.30;2.60;;;17.60;70.20;16.50;96955.00;;;;5074136;28;20207;-86
2023/09/27 00:04:44;;;;;;;2.70;2.50;;;17.50;70.10;16.50;96959.00;;;;5066014;28;20731;-86
2023/09/27 00:07:11;;;;;;;3.03;2.77;;;17.50;70.10;16.40;96960.00;;;;5060263;28;20205;-87
2023/09/27 00:09:39;;;;;;;2.93;2.73;;;17.50;70.10;16.40;96954.00;;;;5053424;28;20211;-87
2023/09/27 00:12:06;;;;;;;3.27;2.97;;;17.50;70.20;16.40;96955.00;;;;5059236;28;20598;-87
2023/09/27 00:14:35;;;;;;;3.30;2.43;;;17.40;70.20;16.40;96950.00;;;;5058777;28;20231;-86
2023/09/27 00:17:03;;;;;;;3.07;2.87;;;17.40;70.20;16.40;96952.00;;;;5059801;28;20201;-86
2023/09/27 00:19:31;;;;;;;2.77;2.57;;;17.40;70.20;16.30;96952.00;;;;5072990;28;20203;-86
2023/09/27 00:21:58;;;;;;;2.90;2.70;;;17.40;70.30;16.30;96947.00;;;;5057595;28;20232;-87
2023/09/27 00:24:25;;;;;;;3.20;3.00;;;17.40;70.30;16.30;96945.00;;;;5057804;28;20283;-87
2023/09/27 00:26:53;;;;;;;2.90;2.60;;;17.30;70.30;16.30;96950.00;;;;5070152;28;20199;-87
2023/09/27 00:29:21;;;;;;;3.50;3.10;;;17.30;70.30;16.30;96940.00;;;;5070692;28;20203;-87
2023/09/27 00:31:49;;;;;;;3.60;3.10;;;17.30;70.40;16.20;96945.00;;;;5054455;28;20639;-86
2023/09/27 00:34:17;;;;;;;3.13;2.83;;;17.30;70.50;16.20;96942.00;;;;5075027;28;20199;-87
2023/09/27 00:36:44;;;;;;;3.10;2.80;;;17.30;70.50;16.20;96941.00;;;;5071772;28;20678;-86
2023/09/27 00:39:12;;;;;;;3.10;2.90;;;17.20;70.50;16.20;96935.00;;;;5067380;28;20199;-87
2023/09/27 00:41:39;;;;;;;3.37;3.17;;;17.20;70.50;16.20;96931.00;;;;5060939;28;20699;-87
2023/09/27 00:44:07;;;;;;;3.73;3.43;;;17.20;70.60;16.20;96937.00;;;;5058518;28;20287;-87
2023/09/27 00:46:35;;;;;;;3.43;3.17;;;17.20;70.60;16.10;96938.00;;;;5062535;28;20224;-87
2023/09/27 00:49:05;;;;;;;5.10;3.83;;;17.20;70.70;16.10;96937.00;;;;5067052;28;20274;-86
2023/09/27 00:51:33;;;;;;;3.60;3.33;;;17.20;70.80;16.10;96934.00;;;;5062205;28;20204;-87
2023/09/27 00:54:03;;;;;;;3.60;3.30;;;17.10;70.70;16.10;96937.00;;;;5067835;28;20197;-90
2023/09/27 00:56:31;;;;;;;3.77;3.47;;;17.10;70.70;16.00;96940.00;;;;5065421;28;20229;-87
2023/09/27 00:58:59;;;;;;;3.63;3.20;;;17.10;70.80;16.00;96931.00;;;;5056141;28;20208;-86
2023/09/27 01:01:28;;;;;;;4.73;3.73;;;17.10;70.90;16.10;96927.00;;;;5072233;28;20223;-87
2023/09/27 01:03:55;;;;;;;4.03;3.67;;;17.10;71.00;16.00;96930.00;;;;5079057;28;20199;-87
2023/09/27 01:06:26;;;;;;;4.33;3.97;;;17.10;71.10;16.00;96930.00;;;;5063558;28;20254;-87
2023/09/27 01:08:53;;;;;;;3.80;3.50;;;17.10;71.20;16.00;96924.00;;;;5041956;28;20220;-87
2023/09/27 01:11:21;;;;;;;4.47;4.00;;;17.10;71.10;16.00;96929.00;;;;5061813;28;20208;-87
2023/09/27 01:13:48;;;;;;;4.80;4.40;;;17.10;71.00;16.00;96924.00;;;;5061817;28;20192;-87
2023/09/27 01:16:16;;;;;;;4.80;4.20;;;17.00;71.00;16.00;96919.00;;;;5062736;28;20671;-87
2023/09/27 01:18:43;;;;;;;5.13;4.43;;;17.00;71.00;16.00;96918.00;;;;5077684;28;20211;-88
2023/09/27 01:21:10;;;;;;;4.10;3.70;;;17.00;71.00;16.00;96924.00;;;;5064155;28;20300;-87
2023/09/27 01:23:41;;;;;;;4.03;3.63;;;17.00;71.00;15.90;96921.00;;;;5059997;28;20226;-87
2023/09/27 01:26:12;;;;;;;4.27;3.87;;;17.00;71.00;15.90;96928.00;;;;5058252;28;20223;-86
2023/09/27 01:28:42;;;;;;;3.80;3.50;;;17.00;71.00;15.90;96926.00;;;;5053525;28;20732;-87
2023/09/27 01:31:09;;;;;;;4.23;3.87;;;17.00;71.00;15.90;96926.00;;;;5063871;28;20212;-86
2023/09/27 01:33:36;;;;;;;3.83;3.47;;;16.90;70.90;15.90;96928.00;;;;5055853;28;20199;-86
2023/09/27 01:36:05;;;;;;;4.67;4.27;;;16.90;70.90;15.80;96915.00;;;;5062725;28;20216;-87
2023/09/27 01:38:32;;;;;;;4.10;3.80;;;16.90;70.90;15.80;96914.00;;;;5054734;28;20224;-89
2023/09/27 01:41:01;;;;;;;4.10;3.70;;;16.90;71.00;15.80;96913.00;;;;5066726;28;20258;-86
2023/09/27 01:43:29;;;;;;;4.13;3.80;;;16.90;71.00;15.80;96904.00;;;;5043145;28;20211;-87
2023/09/27 01:45:56;;;;;;;3.60;3.30;;;16.90;71.00;15.80;96902.00;;;;5065702;28;20217;-87
2023/09/27 01:48:23;;;;;;;3.97;3.43;;;16.80;71.00;15.80;96899.00;;;;5068320;28;20575;-86
2023/09/27 01:50:51;;;;;;;4.30;3.90;;;16.80;70.90;15.80;96904.00;;;;5068108;28;20338;-87
2023/09/27 01:53:18;;;;;;;3.60;3.30;;;16.80;70.90;15.70;96897.00;;;;5051826;28;20200;-87
2023/09/27 01:55:47;;;;;;;3.67;3.37;;;16.80;70.90;15.70;96901.00;;;;5066645;28;20222;-87
2023/09/27 01:58:16;;;;;;;3.70;3.40;;;16.80;70.90;15.70;96901.00;;;;5070033;28;20227;-87
2023/09/27 02:00:43;;;;;;;3.80;3.50;;;16.80;71.00;15.70;96905.00;;;;5069983;28;20239;-87
2023/09/27 02:03:10;;;;;;;4.03;3.73;;;16.70;70.90;15.70;96906.00;;;;5062649;28;20350;-87
2023/09/27 02:05:37;;;;;;;6.13;3.90;;;16.80;70.90;15.70;96905.00;;;;5062582;28;20224;-86
2023/09/27 02:08:06;;;;;;;3.93;3.57;;;16.80;71.00;15.60;96903.00;;;;5065298;28;20211;-88
2023/09/27 02:10:34;;;;;;;3.80;3.50;;;16.70;71.00;15.60;96901.00;;;;5084798;28;20204;-87
2023/09/27 02:13:01;;;;;;;4.07;3.63;;;16.70;70.90;15.60;96899.00;;;;5068732;28;20214;-87
2023/09/27 02:15:30;;;;;;;3.73;3.30;;;16.70;70.90;15.60;96893.00;;;;5059608;28;20224;-86
2023/09/27 02:17:58;;;;;;;3.80;3.50;;;16.70;70.90;15.50;96891.00;;;;5057684;28;20289;-86
2023/09/27 02:20:26;;;;;;;3.83;3.50;;;16.60;70.80;15.50;96891.00;;;;5058562;28;20197;-86
2023/09/27 02:22:56;;;;;;;3.43;3.23;;;16.60;70.80;15.50;96893.00;;;;5057004;28;20273;-87
2023/09/27 02:25:25;;;;;;;3.57;3.27;;;16.60;70.80;15.50;96903.00;;;;5070355;28;20604;-87
2023/09/27 02:27:52;;;;;;;4.00;3.70;;;16.60;70.80;15.50;96899.00;;;;5067424;28;20288;-87
2023/09/27 02:30:21;;;;;;;4.00;3.60;;;16.60;70.90;15.50;96894.00;;;;5059454;28;20193;-87
2023/09/27 02:32:50;;;;;;;3.63;3.33;;;16.50;70.90;15.40;96893.00;;;;5062119;28;20200;-87
2023/09/27 02:35:19;;;;;;;4.00;3.70;;;16.50;71.10;15.40;96906.00;;;;5070773;28;20227;-87
2023/09/27 02:37:46;;;;;;;3.67;3.37;;;16.50;71.10;15.40;96912.00;;;;5071494;28;20865;-87
2023/09/27 02:40:14;;;;;;;4.00;3.70;;;16.50;71.10;15.40;96907.00;;;;5062144;28;20669;-87
2023/09/27 02:42:42;;;;;;;4.60;3.60;;;16.50;71.00;15.40;96903.00;;;;5073267;28;20251;-87
2023/09/27 02:45:12;;;;;;;3.17;2.97;;;16.50;71.00;15.30;96903.00;;;;5066569;28;20701;-87
2023/09/27 02:47:43;;;;;;;4.27;3.87;;;16.40;71.00;15.30;96897.00;;;;5065456;28;20200;-87
2023/09/27 02:50:14;;;;;;;4.40;3.77;;;16.40;71.10;15.30;96894.00;;;;5074417;28;20204;-87
2023/09/27 02:52:43;;;;;;;4.43;4.10;;;16.40;71.20;15.30;96890.00;;;;5065998;28;20212;-87
2023/09/27 02:55:11;;;;;;;4.33;3.70;;;16.40;71.10;15.30;96898.00;;;;5074901;28;20220;-87
2023/09/27 02:57:39;;;;;;;4.53;4.13;;;16.40;71.90;15.30;96903.00;;;;5074882;28;20235;-87
2023/09/27 03:00:08;;;;;;;4.87;3.77;;;16.40;71.20;15.30;96908.00;;;;5073458;28;20227;-88
2023/09/27 03:02:36;;;;;;;4.07;3.67;;;16.40;71.20;15.30;96905.00;;;;5058678;28;20251;-87
2023/09/27 03:05:05;;;;;;;4.37;3.93;;;16.40;71.20;15.20;96900.00;;;;5074257;28;20282;-87
2023/09/27 03:07:34;;;;;;;4.27;3.87;;;16.40;71.20;15.20;96897.00;;;;5073326;28;20204;-87
2023/09/27 03:10:02;;;;;;;4.60;4.10;;;16.30;71.20;15.20;96900.00;;;;5072997;28;20203;-87
2023/09/27 03:12:29;;;;;;;3.77;3.47;;;16.30;71.10;15.20;96906.00;;;;5064663;28;20208;-87
2023/09/27 03:14:56;;;;;;;4.27;3.87;;;16.30;71.20;15.20;96911.00;;;;5060386;28;20215;-88
2023/09/27 03:17:24;;;;;;;3.93;3.63;;;16.30;71.30;15.20;96915.00;;;;5062761;28;20211;-88
2023/09/27 03:19:51;;;;;;;4.13;3.80;;;16.30;71.30;15.20;96906.00;;;;5068974;28;20280;-87
2023/09/27 03:22:20;;;;;;;5.17;4.73;;;16.30;71.40;15.20;96908.00;;;;5064500;28;20223;-88
2023/09/27 03:24:51;;;;;;;6.73;4.50;;;16.30;71.40;15.20;96920.00;;;;5073210;28;20301;-88
2023/09/27 03:27:18;;;;;;;4.50;4.10;;;16.30;71.50;15.20;96919.00;;;;5058556;28;20228;-88
2023/09/27 03:29:46;;;;;;;4.10;3.73;;;16.30;71.50;15.20;96912.00;;;;5072775;28;20207;-88
2023/09/27 03:32:13;;;;;;;4.57;4.20;;;16.30;71.60;15.20;96923.00;;;;5074558;28;20576;-88
2023/09/27 03:34:41;;;;;;;4.33;3.93;;;16.20;71.50;15.20;96923.00;;;;5066163;28;20230;-88
2023/09/27 03:37:08;;;;;;;4.77;4.37;;;16.20;71.70;15.20;96921.00;;;;5073038;28;20207;-88
2023/09/27 03:39:36;;;;;;;5.00;4.60;;;16.30;71.90;15.20;96931.00;;;;5065645;28;20188;-88
2023/09/27 03:42:05;;;;;;;5.03;4.63;;;16.30;72.00;15.20;96922.00;;;;5067066;28;20227;-88
2023/09/27 03:44:33;;;;;;;5.10;4.70;;;16.30;72.00;15.20;96934.00;;;;5065640;28;20282;-88
2023/09/27 03:47:00;;;;;;;6.00;4.60;;;16.20;71.90;15.20;96936.00;;;;5072855;28;20250;-88
2023/09/27 03:49:27;;;;;;;5.73;4.30;;;16.30;71.90;15.20;96921.00;;;;5073802;28;20691;-88
2023/09/27 03:51:55;;;;;;;5.63;4.70;;;16.20;71.80;15.20;96921.00;;;;5065261;28;20283;-87
2023/09/27 03:54:22;;;;;;;5.10;4.43;;;16.20;72.10;15.10;96925.00;;;;5064023;28;20214;-88
2023/09/27 03:56:50;;;;;;;5.17;4.47;;;16.20;72.30;15.10;96931.00;;;;5062239;28;20200;-87
2023/09/27 03:59:20;;;;;;;4.60;4.20;;;16.20;72.20;15.10;96932.00;;;;5044243;28;20681;-88
2023/09/27 04:01:53;;;;;;;5.97;4.77;;;16.20;72.10;15.10;96936.00;;;;5060544;28;20692;-88
2023/09/27 04:04:21;;;;;;;4.87;4.17;;;16.20;72.00;15.10;96935.00;;;;5068932;28;20204;-87
2023/09/27 04:06:49;;;;;;;5.07;4.50;;;16.20;72.00;15.10;96935.00;;;;5064386;28;20202;-88
2023/09/27 04:09:16;;;;;;;4.50;4.10;;;16.20;72.10;15.10;96932.00;;;;5063801;28;20202;-87
2023/09/27 04:11:44;;;;;;;4.70;4.30;;;16.20;72.20;15.10;96924.00;;;;5070613;28;20669;-88
2023/09/27 04:14:11;;;;;;;4.83;4.43;;;16.20;72.30;15.10;96926.00;;;;5064575;28;20203;-88
2023/09/27 04:16:40;;;;;;;5.40;4.87;;;16.20;72.30;15.10;96929.00;;;;5034478;28;20677;-88
2023/09/27 04:19:09;;;;;;;5.20;4.70;;;16.20;72.40;15.10;96930.00;;;;5052359;28;20208;-88
2023/09/27 04:21:36;;;;;;;5.50;4.33;;;16.20;72.50;15.10;96933.00;;;;5070477;28;20224;-88
2023/09/27 04:24:04;;;;;;;4.73;4.33;;;16.20;72.40;15.10;96928.00;;;;5072453;28;20196;-88
2023/09/27 04:26:34;;;;;;;4.63;4.23;;;16.20;72.50;15.10;96942.00;;;;5064768;28;20220;-86
2023/09/27 04:29:01;;;;;;;4.40;4.00;;;16.20;72.60;15.10;96949.00;;;;5066009;28;20193;-87
2023/09/27 04:31:30;;;;;;;4.30;3.90;;;16.20;72.40;15.10;96950.00;;;;5070644;28;20265;-88
2023/09/27 04:33:59;;;;;;;4.10;3.80;;;16.10;72.30;15.10;96956.00;;;;5060670;28;20192;-87
2023/09/27 04:36:26;;;;;;;5.67;4.13;;;16.10;72.20;15.10;96955.00;;;;5070260;28;20220;-88
2023/09/27 04:38:54;;;;;;;4.70;4.30;;;16.10;72.10;15.10;96956.00;;;;5061118;28;20786;-89
2023/09/27 04:41:21;;;;;;;6.30;4.87;;;16.10;72.20;15.10;96964.00;;;;5060982;28;20211;-87
2023/09/27 04:43:49;;;;;;;11.50;5.00;;;16.10;72.40;15.10;96957.00;;;;5072692;28;20283;-87
2023/09/27 04:46:18;;;;;;;6.00;4.70;;;16.10;72.70;15.10;96957.00;;;;5064462;28;20220;-87
2023/09/27 04:48:46;;;;;;;5.10;4.70;;;16.10;73.10;15.10;96954.00;;;;5060010;28;20205;-87
2023/09/27 04:51:15;;;;;;;5.50;5.00;;;16.10;73.20;15.10;96964.00;;;;5042578;28;20200;-87
2023/09/27 04:53:42;;;;;;;6.63;4.60;;;16.10;73.20;15.10;96957.00;;;;5066627;28;20196;-88
2023/09/27 04:56:11;;;;;;;7.37;4.77;;;16.10;73.20;15.10;96962.00;;;;5068365;28;20215;-87
2023/09/27 04:58:40;;;;;;;6.13;5.20;;;16.10;73.40;15.10;96965.00;;;;5053609;28;20208;-87
2023/09/27 05:01:08;;;;;;;5.43;3.90;;;16.10;73.50;15.10;96971.00;;;;5059908;28;20222;-87
2023/09/27 05:03:36;;;;;;;4.53;4.13;;;16.10;73.50;15.10;96969.00;;;;5053944;28;20347;-87
2023/09/27 05:06:03;;;;;;;7.20;4.53;;;16.10;73.50;15.10;96969.00;;;;5056340;28;20231;-87
2023/09/27 05:08:33;;;;;;;3.87;3.57;;;16.10;73.50;15.10;96970.00;;;;5066132;28;20209;-87
2023/09/27 05:11:00;;;;;;;4.20;3.80;;;16.10;73.70;15.10;96978.00;;;;5064450;28;20207;-87
2023/09/27 05:13:27;;;;;;;3.63;3.43;;;16.10;73.70;15.10;96980.00;;;;5071638;28;20208;-86
2023/09/27 05:15:55;;;;;;;3.93;3.63;;;16.10;73.80;15.10;96977.00;;;;5078609;28;20596;-87
2023/09/27 05:18:22;;;;;;;4.47;3.97;;;16.10;73.80;15.20;96980.00;;;;5071597;28;20196;-88
2023/09/27 05:20:49;;;;;;;7.80;3.57;;;16.10;73.80;15.10;96972.00;;;;5067689;28;20586;-87
2023/09/27 05:23:17;;;;;;;4.73;3.20;;;16.20;73.90;15.20;96977.00;;;;5067674;28;20220;-87
2023/09/27 05:25:46;;;;;;;3.73;3.37;;;16.20;74.00;15.20;96974.00;;;;5071414;28;20222;-86
2023/09/27 05:28:13;;;;;;;3.77;3.47;;;16.20;74.10;15.20;96985.00;;;;5064196;28;20646;-86
2023/09/27 05:30:40;;;;;;;4.10;3.70;;;16.20;74.10;15.20;96972.00;;;;5070165;28;20196;-86
2023/09/27 05:33:07;;;;;;;3.80;3.57;;;16.20;74.20;15.20;96975.00;;;;5057692;28;20207;-86
2023/09/27 05:35:35;;;;;;;4.60;4.20;;;16.20;74.20;15.30;96983.00;;;;5054204;28;20224;-87
2023/09/27 05:38:03;;;;;;;3.43;3.23;;;16.30;74.40;15.30;97000.00;;;;5059666;28;20202;-87
2023/09/27 05:40:31;;;;;;;4.20;3.90;;;16.30;74.40;15.30;97006.00;;;;5062333;28;20235;-87
2023/09/27 05:42:59;;;;;;;7.23;3.67;;;16.30;74.50;15.30;97001.00;;;;5064220;28;20220;-83
2023/09/27 05:45:26;;;;;;;5.30;3.37;;;16.30;74.70;15.40;97001.00;;;;5064138;28;20212;-82
2023/09/27 05:47:54;;;;;;;4.17;3.87;;;16.40;74.70;15.40;97007.00;;;;5059548;28;20204;-83
2023/09/27 05:50:22;;;;;;;3.47;3.27;;;16.40;74.70;15.40;97001.00;;;;5059539;28;20286;-82
2023/09/27 05:52:49;;;;;;;8.17;4.20;;;16.40;74.70;15.50;96998.00;;;;5081461;28;20222;-82
2023/09/27 05:55:17;;;;;;;3.40;3.10;;;16.50;74.80;15.50;96999.00;;;;5063871;28;20215;-82
2023/09/27 05:57:44;;;;;;;3.10;2.90;;;16.50;74.80;15.50;97006.00;;;;5061484;28;20634;-82
2023/09/27 06:00:22;;;;;;;3.50;3.20;;;16.60;74.80;15.50;97012.00;;;;5061101;28;20578;-82
2023/09/27 06:02:49;;;;;;;2.83;2.60;;;16.60;75.00;15.60;97006.00;;;;5056015;28;20726;-82
2023/09/27 06:05:16;;;;;;;3.37;2.83;;;16.70;74.90;15.70;97002.00;;;;5064333;28;20222;-82
2023/09/27 06:07:44;;;;;;;5.50;3.10;;;16.70;74.90;15.70;97007.00;;;;5072165;28;20204;-82
2023/09/27 06:10:11;;;;;;;4.57;3.53;;;16.70;75.00;15.70;97002.00;;;;5076342;28;20204;-82
2023/09/27 06:12:38;;;;;;;3.60;3.40;;;16.80;75.10;15.80;97016.00;;;;5069645;28;20206;-83
2023/09/27 06:15:09;;;;;;;3.53;3.23;;;16.80;75.10;15.80;97008.00;;;;5072679;28;20250;-82
2023/09/27 06:17:38;;;;;;;5.80;3.23;;;16.80;75.10;15.80;97016.00;;;;5076849;28;20246;-82
2023/09/27 06:20:08;;;;;;;3.10;2.90;;;16.90;75.10;15.90;97014.00;;;;5066715;28;20549;-82
2023/09/27 06:22:35;;;;;;;3.37;3.17;;;16.90;75.00;15.90;97018.00;;;;5084178;28;20301;-82
2023/09/27 06:25:02;;;;;;;3.60;3.30;;;16.90;74.90;16.00;97021.00;;;;5067271;28;20216;-83
2023/09/27 06:27:29;;;;;;;3.47;3.27;;;17.00;74.80;16.00;97019.00;;;;5077416;28;20216;-82
2023/09/27 06:29:56;;;;;;;3.40;3.20;;;17.00;74.70;16.00;97035.00;;;;5059138;28;20223;-83
2023/09/27 06:32:26;;;;;;;3.90;3.60;;;17.00;74.80;16.10;97027.00;;;;5064123;28;20673;-83
2023/09/27 06:34:55;;;;;;;4.07;3.27;;;17.10;74.70;16.10;97032.00;;;;5077909;28;20250;-83
2023/09/27 06:37:22;;;;;;;5.03;3.70;;;17.10;74.70;16.10;97029.00;;;;5076817;28;20200;-82
2023/09/27 06:39:49;;;;;;;3.33;3.13;;;17.10;74.80;16.10;97023.00;;;;5076510;28;20583;-82
2023/09/27 06:42:16;;;;;;;3.90;3.27;;;17.20;74.80;16.20;97029.00;;;;5078528;28;20612;-82
2023/09/27 06:44:43;;;;;;;5.43;3.43;;;17.20;74.80;16.20;97037.00;;;;5071885;28;20642;-82
2023/09/27 06:47:11;;;;;;;4.07;3.77;;;17.20;74.80;16.20;97031.00;;;;5067254;28;20555;-82
2023/09/27 06:49:38;;;;;;;7.00;3.80;;;17.30;75.50;16.30;97036.00;;;;5076718;28;20267;-83
2023/09/27 06:52:07;;;;;;;4.00;3.70;;;17.30;74.90;16.30;97027.00;;;;5066975;28;20235;-82
2023/09/27 06:54:34;;;;;;;4.00;3.70;;;17.30;75.60;16.40;97038.00;;;;5069908;28;20243;-82
2023/09/27 06:57:02;;;;;;;6.80;3.80;;;17.40;74.90;16.40;97041.00;;;;5080676;28;20656;-82
2023/09/27 06:59:29;;;;;;;4.33;3.93;;;17.40;74.80;16.40;97039.00;;;;5081100;28;20230;-82
2023/09/27 07:01:56;;;;;;;4.17;3.77;;;17.40;74.80;16.50;97047.00;;;;5079138;28;20205;-82
2023/09/27 07:04:24;;;;;;;4.17;3.87;;;17.50;74.90;16.50;97052.00;;;;5080801;28;20210;-82
2023/09/27 07:06:51;;;;;;;4.60;4.30;;;17.50;74.90;16.60;97053.00;;;;5081773;28;20661;-82
2023/09/27 07:09:20;;;;;;;4.60;4.30;;;17.50;75.00;16.60;97062.00;;;;5080861;28;20200;-82
2023/09/27 07:11:48;;;;;;;3.90;3.67;;;17.60;75.00;16.70;97063.00;;;;5078743;28;20207;-83
2023/09/27 07:14:18;;;;;;;3.77;3.47;;;17.60;74.90;16.70;97061.00;;;;5063223;28;20216;-82
2023/09/27 07:16:46;;;;;;;4.23;3.90;;;17.60;75.00;16.80;97063.00;;;;5072270;28;20668;-83
2023/09/27 07:19:13;;;;;;;4.40;4.10;;;17.70;75.20;16.80;97060.00;;;;5084305;28;20200;-83
2023/09/27 07:21:41;;;;;;;3.87;3.63;;;17.70;75.20;16.90;97063.00;;;;5067468;28;20193;-82
2023/09/27 07:24:09;;;;;;;4.33;4.03;;;17.80;75.20;16.90;97058.00;;;;5084081;28;20216;-82
2023/09/27 07:26:41;;;;;;;3.97;3.67;;;17.80;75.20;17.00;97064.00;;;;5083228;28;20200;-82
2023/09/27 07:29:09;;;;;;;4.83;4.33;;;17.90;75.40;17.00;97061.00;;;;5082778;28;20231;-83
2023/09/27 07:31:36;;;;;;;5.07;4.10;;;17.90;75.40;17.10;97058.00;;;;5083744;28;20680;-82
2023/09/27 07:34:05;;;;;;;4.83;4.53;;;18.00;75.50;17.10;97057.00;;;;5089560;28;20285;-82
2023/09/27 07:36:32;;;;;;;4.47;4.17;;;18.00;75.60;17.10;97064.00;;;;5074576;28;20239;-82
2023/09/27 07:39:03;;;;;;;4.13;3.83;;;18.10;75.60;17.20;97061.00;;;;5061551;28;20287;-82
2023/09/27 07:41:31;;;;;;;4.87;4.43;;;18.10;75.60;17.30;97068.00;;;;5070337;28;20200;-82
2023/09/27 07:44:00;;;;;;;4.87;4.50;;;18.20;75.60;17.30;97065.00;;;;5067193;28;20228;-82
2023/09/27 07:46:29;;;;;;;4.90;4.53;;;18.20;75.70;17.40;97062.00;;;;5071199;28;20227;-82
2023/09/27 07:48:56;;;;;;;4.37;4.07;;;18.30;75.80;17.40;97056.00;;;;5075946;28;20629;-82
2023/09/27 07:51:24;;;;;;;4.13;3.83;;;18.30;75.80;17.50;97065.00;;;;5056740;28;20210;-82
2023/09/27 07:53:53;;;;;;;4.90;4.50;;;18.40;75.90;17.60;97061.00;;;;5082593;28;20211;-82
2023/09/27 07:56:21;;;;;;;4.77;4.47;;;18.50;76.20;17.70;97066.00;;;;5074836;28;20223;-82
2023/09/27 07:58:51;;;;;;;5.13;4.73;;;18.50;76.20;17.80;97064.00;;;;5067582;28;20203;-82
2023/09/27 08:01:21;;;;;;;5.20;4.80;;;18.60;76.30;17.90;97073.00;;;;5084726;28;20206;-82
2023/09/27 08:03:51;;;;;;;5.13;4.73;;;18.70;76.30;18.00;97070.00;;;;5077654;28;20228;-82
2023/09/27 08:06:20;;;;;;;5.57;4.77;;;18.80;76.60;18.10;97076.00;;;;5068630;28;20227;-82
2023/09/27 08:08:47;;;;;;;5.20;4.87;;;18.90;77.00;18.30;97074.00;;;;5084370;28;20208;-82
2023/09/27 08:11:14;;;;;;;5.87;5.43;;;18.90;77.00;18.30;97087.00;;;;5084020;28;20684;-82
2023/09/27 08:13:42;;;;;;;5.80;5.33;;;19.00;77.00;18.50;97076.00;;;;5082902;28;20205;-82
2023/09/27 08:16:09;;;;;;;5.37;4.90;;;19.20;76.90;18.50;97081.00;;;;5083487;28;20263;-82
2023/09/27 08:18:38;;;;;;;5.97;5.43;;;19.30;77.00;18.60;97086.00;;;;5081954;28;20283;-82
2023/09/27 08:21:06;;;;;;;6.03;5.60;;;19.40;77.00;18.80;97083.00;;;;5074024;28;20208;-82
2023/09/27 08:23:33;;;;;;;6.27;5.77;;;19.50;77.00;18.90;97084.00;;;;5077684;28;20229;-82
2023/09/27 08:26:00;;;;;;;6.43;5.87;;;19.60;77.00;19.00;97082.00;;;;5082701;28;20251;-82
2023/09/27 08:28:31;;;;;;;6.67;6.10;;;19.70;76.90;19.10;97080.00;;;;5081647;28;20290;-82
2023/09/27 08:30:59;;;;;;;6.80;6.10;;;19.80;77.00;19.20;97086.00;;;;5081638;28;20200;-82
2023/09/27 08:33:27;;;;;;;7.33;6.70;;;19.90;77.00;19.30;97084.00;;;;5071220;28;20213;-82
2023/09/27 08:35:56;;;;;;;7.07;6.40;;;20.00;76.90;19.40;97083.00;;;;5081209;28;20281;-82
2023/09/27 08:38:23;;;;;;;7.07;6.47;;;20.10;77.00;19.60;97084.00;;;;5070982;28;20660;-82
2023/09/27 08:40:50;;;;;;;7.63;6.90;;;20.20;77.20;19.70;97085.00;;;;5072247;28;20277;-82
2023/09/27 08:43:18;;;;;;;9.87;8.87;;;20.30;77.20;19.80;97086.00;;;;5062385;28;20229;-82
2023/09/27 08:45:48;;;;;;;8.70;7.90;;;20.40;77.20;19.90;97086.00;;;;5078731;28;20224;-82
2023/09/27 08:48:20;;;;;;;8.63;7.83;;;20.50;77.20;20.10;97076.00;;;;5062290;28;20209;-82
2023/09/27 08:50:54;;;;;;;8.67;7.87;;;20.70;77.30;20.20;97083.00;;;;5077791;28;20220;-82
2023/09/27 08:53:24;;;;;;;8.97;7.90;;;20.70;77.20;20.30;97081.00;;;;5079136;28;20207;-82
2023/09/27 08:55:51;;;;;;;8.63;7.83;;;20.90;77.30;20.50;97082.00;;;;5066107;28;20287;-82
2023/09/27 08:58:23;;;;;;;9.50;8.50;;;21.00;77.90;20.60;97073.00;;;;5081873;28;20641;-83
2023/09/27 09:00:51;;;;;;;9.03;8.13;;;21.10;77.10;20.80;97077.00;;;;5083260;28;20272;-82
2023/09/27 09:03:19;;;;;;;8.43;7.63;;;21.30;77.00;20.90;97077.00;;;;5083075;28;20228;-82
2023/09/27 09:05:48;;;;;;;7.80;7.10;;;21.40;76.90;21.00;97067.00;;;;5074441;28;20318;-82
2023/09/27 09:08:19;;;;;;;6.93;6.33;;;21.50;76.80;21.10;97068.00;;;;5083741;28;20238;-82
2023/09/27 09:10:50;;;;;;;7.63;7.03;;;21.70;76.70;21.30;97063.00;;;;5076291;28;20207;-82
2023/09/27 09:13:21;;;;;;;7.73;7.00;;;21.80;76.90;21.40;97060.00;;;;5084899;28;20210;-82
2023/09/27 09:15:51;;;;;;;7.17;6.20;;;21.90;76.70;21.60;97065.00;;;;5082160;28;20224;-83
2023/09/27 09:18:31;;;;;;;8.77;7.60;;;22.10;76.70;21.70;97067.00;;;;5080752;28;20203;-82
2023/09/27 09:21:08;;;;;;;8.13;7.33;;;22.20;76.30;21.90;97068.00;;;;5075962;28;20681;-82
2023/09/27 09:23:37;;;;;;;7.37;6.67;;;22.30;76.30;22.00;97068.00;;;;5080304;28;20229;-82
2023/09/27 09:26:09;;;;;;;7.83;7.03;;;22.50;76.20;22.20;97064.00;;;;5080352;28;20708;-82
2023/09/27 09:28:55;;;;;;;7.47;6.70;;;22.60;75.90;22.40;97060.00;;;;5079229;28;20209;-83
2023/09/27 09:31:24;;;;;;;7.77;7.03;;;22.80;75.20;22.50;97061.00;;;;5078207;28;20235;-82
2023/09/27 09:34:03;;;;;;;9.83;7.60;;;22.90;75.40;22.70;97063.00;;;;5077578;28;20659;-82
2023/09/27 09:36:30;;;;;;;7.07;6.37;;;23.00;75.00;22.80;97067.00;;;;5076673;28;20234;-82
2023/09/27 09:39:05;;;;;;;8.00;7.23;;;23.20;74.90;22.90;97060.00;;;;5076453;28;20206;-82
2023/09/27 09:41:47;;;;;;;9.83;7.50;;;23.30;74.50;23.00;97065.00;;;;5082631;28;20214;-82
2023/09/27 09:44:25;;;;;;;7.37;6.67;;;23.50;74.00;23.20;97061.00;;;;5075097;28;20259;-82
2023/09/27 09:46:53;;;;;;;7.43;6.73;;;23.60;74.00;23.30;97059.00;;;;5076482;28;20204;-82
2023/09/27 09:49:21;;;;;;;8.47;7.60;;;23.70;73.90;23.40;97057.00;;;;5077972;28;20242;-82
2023/09/27 09:51:50;;;;;;;8.47;7.53;;;23.80;73.80;23.50;97054.00;;;;5069716;28;20262;-82
2023/09/27 09:54:32;;;;;;;8.40;7.37;;;23.90;73.20;23.60;97052.00;;;;5076490;28;20790;-82
2023/09/27 09:57:05;;;;;;;8.87;7.83;;;24.00;73.00;23.70;97056.00;;;;5078955;28;20265;-82
2023/09/27 10:00:01;;;;;;;9.87;8.37;;;24.10;72.70;23.80;97050.00;;;;5078971;28;20207;-82
2023/09/27 10:02:33;;;;;;;10.70;9.57;;;24.30;72.60;23.90;97049.00;;;;5077436;28;20636;-81
2023/09/27 10:05:06;;;;;;;11.40;9.83;;;24.40;72.30;24.00;97044.00;;;;5080242;28;20231;-82
2023/09/27 10:07:36;;;;;;;11.77;10.20;;;24.40;71.90;24.00;97050.00;;;;5078481;28;20199;-81
2023/09/27 10:10:04;;;;;;;13.00;9.50;;;24.50;72.20;24.10;97044.00;;;;5080158;28;20291;-82
2023/09/27 10:12:34;;;;;;;12.60;11.07;;;24.60;71.60;24.20;97054.00;;;;5076911;28;20199;-82
2023/09/27 10:15:03;;;;;;;10.93;9.83;;;24.60;70.30;24.30;97053.00;;;;5079961;28;20262;-82
2023/09/27 10:17:33;;;;;;;9.97;8.80;;;24.70;70.50;24.30;97045.00;;;;5078830;28;20304;-82
2023/09/27 10:20:13;;;;;;;11.10;8.13;;;24.80;70.80;24.40;97046.00;;;;5080866;28;20253;-82
2023/09/27 10:22:42;;;;;;;9.90;8.43;;;24.90;70.80;24.50;97050.00;;;;5067905;28;20204;-82
2023/09/27 10:25:35;;;;;;;9.53;8.53;;;24.90;70.50;24.60;97051.00;;;;5079184;28;20235;-82
2023/09/27 10:28:12;;;;;;;9.30;7.27;;;25.10;69.70;24.70;97042.00;;;;5076672;28;20206;-82
2023/09/27 10:31:07;;;;;;;8.70;7.83;;;25.10;70.10;24.80;97038.00;;;;5075804;28;20297;-81
2023/09/27 10:34:11;;;;;;;9.20;8.17;;;25.20;69.30;24.90;97032.00;;;;5078950;28;20204;-82
2023/09/27 10:36:46;;;;;;;8.07;7.37;;;25.30;69.40;25.00;97028.00;;;;5070117;28;20261;-82
2023/09/27 10:39:13;;;;;;;9.17;8.27;;;25.40;69.20;25.10;97026.00;;;;5067984;28;20205;-82
2023/09/27 10:41:50;;;;;;;8.53;7.73;;;25.50;69.40;25.20;97023.00;;;;5078283;28;20211;-81
2023/09/27 10:44:33;;;;;;;7.80;7.10;;;25.60;69.00;25.30;97013.00;;;;5077579;28;20215;-81
2023/09/27 10:47:03;;;;;;;9.00;7.83;;;25.60;68.50;25.30;97011.00;;;;5078076;28;20203;-81
2023/09/27 10:49:37;;;;;;;7.80;6.93;;;25.70;68.40;25.30;97016.00;;;;5080331;28;20212;-82
2023/09/27 10:52:15;;;;;;;8.20;7.23;;;25.70;68.30;25.30;97011.00;;;;5071698;28;20227;-82
2023/09/27 10:54:43;;;;;;;8.47;7.67;;;25.80;68.20;25.40;97009.00;;;;5078758;28;20227;-82
2023/09/27 10:57:10;;;;;;;9.00;7.47;;;25.80;68.00;25.40;97001.00;;;;5079049;28;20295;-81
2023/09/27 10:59:44;;;;;;;9.67;8.63;;;25.80;67.00;25.40;96988.00;;;;5082540;28;20235;-82
2023/09/27 11:02:11;;;;;;;10.23;8.30;;;25.80;66.60;25.40;96985.00;;;;5084315;28;20660;-82
2023/09/27 11:04:39;;;;;;;11.20;8.43;;;25.80;67.20;25.40;96983.00;;;;5083386;28;20230;-82